sensor_id;sensor_type;location;lat;lon;timestamp;temperature;humidity
48728;DHT22;34527;45.618;5.130;2022-08-19T00:01:20;18.70;99.90
48728;DHT22;34527;45.618;5.130;2022-08-19T00:03:46;18.70;99.90
48728;DHT22;34527;45.618;5.130;2022-08-19T00:06:13;18.70;99.90
48728;DHT22;34527;45.618;5.130;2022-08-19T00:08:39;18.60;99.90
48728;DHT22;34527;45.618;5.130;2022-08-19T00:11:06;18.60;99.90
48728;DHT22;34527;45.618;5.130;2022-08-19T00:13:33;18.60;99.90
48728;DHT22;34527;45.618;5.130;2022-08-19T00:15:59;18.50;99.90
48728;DHT22;34527;45.618;5.130;2022-08-19T00:18:25;18.50;99.90
48728;DHT22;34527;45.618;5.130;2022-08-19T00:20:51;18.50;99.90
48728;DHT22;34527;45.618;5.130;2022-08-19T00:23:17;18.50;99.90
48728;DHT22;34527;45.618;5.130;2022-08-19T00:25:43;18.50;99.90
48728;DHT22;34527;45.618;5.130;2022-08-19T00:28:09;18.50;99.90
48728;DHT22;34527;45.618;5.130;2022-08-19T00:30:35;18.50;99.90
48728;DHT22;34527;45.618;5.130;2022-08-19T00:33:02;18.40;99.90
48728;DHT22;34527;45.618;5.130;2022-08-19T00:35:28;18.40;99.90
48728;DHT22;34527;45.618;5.130;2022-08-19T00:37:55;18.40;99.90
48728;DHT22;34527;45.618;5.130;2022-08-19T00:40:22;18.40;99.90
48728;DHT22;34527;45.618;5.130;2022-08-19T00:42:48;18.40;99.90
48728;DHT22;34527;45.618;5.130;2022-08-19T00:45:17;18.40;99.90
48728;DHT22;34527;45.618;5.130;2022-08-19T00:47:44;18.40;99.90
48728;DHT22;34527;45.618;5.130;2022-08-19T00:50:14;18.40;99.90
48728;DHT22;34527;45.618;5.130;2022-08-19T00:52:43;18.40;99.90
48728;DHT22;34527;45.618;5.130;2022-08-19T00:55:15;18.30;99.90
48728;DHT22;34527;45.618;5.130;2022-08-19T00:57:46;18.40;99.90
48728;DHT22;34527;45.618;5.130;2022-08-19T01:00:15;18.40;99.90
48728;DHT22;34527;45.618;5.130;2022-08-19T01:02:42;18.50;99.90
48728;DHT22;34527;45.618;5.130;2022-08-19T01:05:11;18.50;99.90
48728;DHT22;34527;45.618;5.130;2022-08-19T01:07:40;18.50;99.90
48728;DHT22;34527;45.618;5.130;2022-08-19T01:10:10;18.40;99.90
48728;DHT22;34527;45.618;5.130;2022-08-19T01:12:37;18.40;99.90
48728;DHT22;34527;45.618;5.130;2022-08-19T01:15:06;18.40;99.90
48728;DHT22;34527;45.618;5.130;2022-08-19T01:17:33;18.50;99.90
48728;DHT22;34527;45.618;5.130;2022-08-19T01:20:00;18.50;99.90
48728;DHT22;34527;45.618;5.130;2022-08-19T01:22:36;18.50;99.90
48728;DHT22;34527;45.618;5.130;2022-08-19T01:25:04;18.50;99.90
48728;DHT22;34527;45.618;5.130;2022-08-19T01:27:41;18.40;99.90
48728;DHT22;34527;45.618;5.130;2022-08-19T01:30:08;18.50;99.90
48728;DHT22;34527;45.618;5.130;2022-08-19T01:32:35;18.50;99.90
48728;DHT22;34527;45.618;5.130;2022-08-19T01:35:01;18.50;99.90
48728;DHT22;34527;45.618;5.130;2022-08-19T01:37:28;18.50;99.90
48728;DHT22;34527;45.618;5.130;2022-08-19T01:39:56;18.40;99.90
48728;DHT22;34527;45.618;5.130;2022-08-19T01:42:22;18.50;99.90
48728;DHT22;34527;45.618;5.130;2022-08-19T01:44:47;18.50;99.90
48728;DHT22;34527;45.618;5.130;2022-08-19T01:47:14;18.50;99.90
48728;DHT22;34527;45.618;5.130;2022-08-19T01:49:41;18.50;99.90
48728;DHT22;34527;45.618;5.130;2022-08-19T01:52:07;18.50;99.90
48728;DHT22;34527;45.618;5.130;2022-08-19T01:54:33;18.50;99.90
48728;DHT22;34527;45.618;5.130;2022-08-19T01:57:09;18.40;99.90
48728;DHT22;34527;45.618;5.130;2022-08-19T01:59:36;18.50;99.90
48728;DHT22;34527;45.618;5.130;2022-08-19T02:02:05;18.50;99.90
48728;DHT22;34527;45.618;5.130;2022-08-19T02:04:35;18.40;99.90
48728;DHT22;34527;45.618;5.130;2022-08-19T02:07:01;18.40;99.90
48728;DHT22;34527;45.618;5.130;2022-08-19T02:09:27;18.40;99.90
48728;DHT22;34527;45.618;5.130;2022-08-19T02:11:53;18.50;99.90
48728;DHT22;34527;45.618;5.130;2022-08-19T02:14:19;18.60;99.90
48728;DHT22;34527;45.618;5.130;2022-08-19T02:16:45;18.60;99.90
48728;DHT22;34527;45.618;5.130;2022-08-19T02:19:10;18.50;99.90
48728;DHT22;34527;45.618;5.130;2022-08-19T02:21:36;18.50;99.90
48728;DHT22;34527;45.618;5.130;2022-08-19T02:24:03;18.40;99.90
48728;DHT22;34527;45.618;5.130;2022-08-19T02:26:29;18.40;99.90
48728;DHT22;34527;45.618;5.130;2022-08-19T02:28:56;18.40;99.90
48728;DHT22;34527;45.618;5.130;2022-08-19T02:31:24;18.50;99.90
48728;DHT22;34527;45.618;5.130;2022-08-19T02:33:50;18.50;99.90
48728;DHT22;34527;45.618;5.130;2022-08-19T02:36:18;18.50;99.90
48728;DHT22;34527;45.618;5.130;2022-08-19T02:38:44;18.40;99.90
48728;DHT22;34527;45.618;5.130;2022-08-19T02:41:19;18.50;99.90
48728;DHT22;34527;45.618;5.130;2022-08-19T02:43:46;18.50;99.90
48728;DHT22;34527;45.618;5.130;2022-08-19T02:46:19;18.50;99.90
48728;DHT22;34527;45.618;5.130;2022-08-19T02:48:50;18.50;99.90
48728;DHT22;34527;45.618;5.130;2022-08-19T02:51:22;18.50;99.90
48728;DHT22;34527;45.618;5.130;2022-08-19T02:53:49;18.50;99.90
48728;DHT22;34527;45.618;5.130;2022-08-19T02:56:15;18.60;99.90
48728;DHT22;34527;45.618;5.130;2022-08-19T02:58:41;18.60;99.90
48728;DHT22;34527;45.618;5.130;2022-08-19T03:01:09;18.60;99.90
48728;DHT22;34527;45.618;5.130;2022-08-19T03:03:36;18.40;99.90
48728;DHT22;34527;45.618;5.130;2022-08-19T03:06:08;18.40;99.90
48728;DHT22;34527;45.618;5.130;2022-08-19T03:08:34;18.40;99.90
48728;DHT22;34527;45.618;5.130;2022-08-19T03:11:00;18.30;99.90
48728;DHT22;34527;45.618;5.130;2022-08-19T03:13:26;18.40;99.90
48728;DHT22;34527;45.618;5.130;2022-08-19T03:15:52;18.40;99.90
48728;DHT22;34527;45.618;5.130;2022-08-19T03:18:18;18.30;99.90
48728;DHT22;34527;45.618;5.130;2022-08-19T03:20:48;18.30;99.90
48728;DHT22;34527;45.618;5.130;2022-08-19T03:23:16;18.30;99.90
48728;DHT22;34527;45.618;5.130;2022-08-19T03:25:45;18.20;99.90
48728;DHT22;34527;45.618;5.130;2022-08-19T03:28:13;18.20;99.90
48728;DHT22;34527;45.618;5.130;2022-08-19T03:30:40;18.20;99.90
48728;DHT22;34527;45.618;5.130;2022-08-19T03:33:08;18.20;99.90
48728;DHT22;34527;45.618;5.130;2022-08-19T03:35:34;18.20;99.90
48728;DHT22;34527;45.618;5.130;2022-08-19T03:38:05;18.20;99.90
48728;DHT22;34527;45.618;5.130;2022-08-19T03:40:36;18.40;99.90
48728;DHT22;34527;45.618;5.130;2022-08-19T03:43:02;18.50;99.90
48728;DHT22;34527;45.618;5.130;2022-08-19T03:45:28;18.50;99.90
48728;DHT22;34527;45.618;5.130;2022-08-19T03:47:55;18.30;99.90
48728;DHT22;34527;45.618;5.130;2022-08-19T03:50:20;18.40;99.90
48728;DHT22;34527;45.618;5.130;2022-08-19T03:52:50;18.30;99.90
48728;DHT22;34527;45.618;5.130;2022-08-19T03:55:17;18.30;99.90
48728;DHT22;34527;45.618;5.130;2022-08-19T03:57:43;18.30;99.90
48728;DHT22;34527;45.618;5.130;2022-08-19T04:00:12;18.20;99.90
48728;DHT22;34527;45.618;5.130;2022-08-19T04:02:37;18.30;99.90
48728;DHT22;34527;45.618;5.130;2022-08-19T04:05:04;18.30;99.90
48728;DHT22;34527;45.618;5.130;2022-08-19T04:07:30;18.30;99.90
48728;DHT22;34527;45.618;5.130;2022-08-19T04:09:56;18.30;99.90
48728;DHT22;34527;45.618;5.130;2022-08-19T04:12:22;18.30;99.90
48728;DHT22;34527;45.618;5.130;2022-08-19T04:14:48;18.30;99.90
48728;DHT22;34527;45.618;5.130;2022-08-19T04:17:14;18.30;99.90
48728;DHT22;34527;45.618;5.130;2022-08-19T04:19:40;18.40;99.90
48728;DHT22;34527;45.618;5.130;2022-08-19T04:22:06;18.30;99.90
48728;DHT22;34527;45.618;5.130;2022-08-19T04:24:34;18.30;99.90
48728;DHT22;34527;45.618;5.130;2022-08-19T04:27:01;18.40;99.90
48728;DHT22;34527;45.618;5.130;2022-08-19T04:29:29;18.40;99.90
48728;DHT22;34527;45.618;5.130;2022-08-19T04:31:56;18.40;99.90
48728;DHT22;34527;45.618;5.130;2022-08-19T04:34:24;18.50;99.90
48728;DHT22;34527;45.618;5.130;2022-08-19T04:36:52;18.50;99.90
48728;DHT22;34527;45.618;5.130;2022-08-19T04:39:21;18.40;99.90
48728;DHT22;34527;45.618;5.130;2022-08-19T04:41:48;18.40;99.90
48728;DHT22;34527;45.618;5.130;2022-08-19T04:44:34;18.40;99.90
48728;DHT22;34527;45.618;5.130;2022-08-19T04:47:00;18.30;99.90
48728;DHT22;34527;45.618;5.130;2022-08-19T04:49:26;18.30;99.90
48728;DHT22;34527;45.618;5.130;2022-08-19T04:51:53;18.30;99.90
48728;DHT22;34527;45.618;5.130;2022-08-19T04:54:21;18.30;99.90
48728;DHT22;34527;45.618;5.130;2022-08-19T04:56:49;18.30;99.90
48728;DHT22;34527;45.618;5.130;2022-08-19T04:59:16;18.20;99.90
48728;DHT22;34527;45.618;5.130;2022-08-19T05:01:44;18.20;99.90
48728;DHT22;34527;45.618;5.130;2022-08-19T05:04:19;18.20;99.90
48728;DHT22;34527;45.618;5.130;2022-08-19T05:06:47;18.10;99.90
48728;DHT22;34527;45.618;5.130;2022-08-19T05:09:14;18.20;99.90
48728;DHT22;34527;45.618;5.130;2022-08-19T05:11:41;18.20;99.90
48728;DHT22;34527;45.618;5.130;2022-08-19T05:14:08;18.20;99.90
48728;DHT22;34527;45.618;5.130;2022-08-19T05:16:34;18.20;99.90
48728;DHT22;34527;45.618;5.130;2022-08-19T05:19:00;18.20;99.90
48728;DHT22;34527;45.618;5.130;2022-08-19T05:21:45;18.20;99.90
48728;DHT22;34527;45.618;5.130;2022-08-19T05:24:30;18.20;99.90
48728;DHT22;34527;45.618;5.130;2022-08-19T05:26:57;18.20;99.90
48728;DHT22;34527;45.618;5.130;2022-08-19T05:29:25;18.20;99.90
48728;DHT22;34527;45.618;5.130;2022-08-19T05:31:53;18.20;99.90
48728;DHT22;34527;45.618;5.130;2022-08-19T05:34:20;18.20;99.90
48728;DHT22;34527;45.618;5.130;2022-08-19T05:36:53;18.30;99.90
48728;DHT22;34527;45.618;5.130;2022-08-19T05:39:25;18.20;99.90
48728;DHT22;34527;45.618;5.130;2022-08-19T05:41:58;18.20;99.90
48728;DHT22;34527;45.618;5.130;2022-08-19T05:44:26;18.30;99.90
48728;DHT22;34527;45.618;5.130;2022-08-19T05:46:53;18.30;99.90
48728;DHT22;34527;45.618;5.130;2022-08-19T05:49:22;18.30;99.90
48728;DHT22;34527;45.618;5.130;2022-08-19T05:51:49;18.30;99.90
48728;DHT22;34527;45.618;5.130;2022-08-19T05:54:15;18.30;99.90
48728;DHT22;34527;45.618;5.130;2022-08-19T05:56:43;18.30;99.90
48728;DHT22;34527;45.618;5.130;2022-08-19T05:59:14;18.40;99.90
48728;DHT22;34527;45.618;5.130;2022-08-19T06:01:42;18.40;99.90
48728;DHT22;34527;45.618;5.130;2022-08-19T06:04:13;18.40;99.90
48728;DHT22;34527;45.618;5.130;2022-08-19T06:06:49;18.50;99.90
48728;DHT22;34527;45.618;5.130;2022-08-19T06:09:17;18.60;99.90
48728;DHT22;34527;45.618;5.130;2022-08-19T06:11:47;18.50;99.90
48728;DHT22;34527;45.618;5.130;2022-08-19T06:14:16;18.60;99.90
48728;DHT22;34527;45.618;5.130;2022-08-19T06:16:44;18.70;99.90
48728;DHT22;34527;45.618;5.130;2022-08-19T06:19:16;18.70;99.90
48728;DHT22;34527;45.618;5.130;2022-08-19T06:21:44;18.70;99.90
48728;DHT22;34527;45.618;5.130;2022-08-19T06:24:13;18.70;99.90
48728;DHT22;34527;45.618;5.130;2022-08-19T06:26:42;18.70;99.90
48728;DHT22;34527;45.618;5.130;2022-08-19T06:29:10;18.70;99.90
48728;DHT22;34527;45.618;5.130;2022-08-19T06:31:36;18.60;99.90
48728;DHT22;34527;45.618;5.130;2022-08-19T06:34:04;18.60;99.90
48728;DHT22;34527;45.618;5.130;2022-08-19T06:36:34;18.60;99.90
48728;DHT22;34527;45.618;5.130;2022-08-19T06:39:03;18.80;99.90
48728;DHT22;34527;45.618;5.130;2022-08-19T06:41:31;18.90;99.90
48728;DHT22;34527;45.618;5.130;2022-08-19T06:44:00;18.80;99.90
48728;DHT22;34527;45.618;5.130;2022-08-19T06:46:26;18.80;99.90
48728;DHT22;34527;45.618;5.130;2022-08-19T06:48:53;18.80;99.90
48728;DHT22;34527;45.618;5.130;2022-08-19T06:51:20;18.80;99.90
48728;DHT22;34527;45.618;5.130;2022-08-19T06:53:48;18.90;99.90
48728;DHT22;34527;45.618;5.130;2022-08-19T06:56:18;18.90;99.90
48728;DHT22;34527;45.618;5.130;2022-08-19T06:58:46;19.10;99.90
48728;DHT22;34527;45.618;5.130;2022-08-19T07:01:13;19.00;99.90
48728;DHT22;34527;45.618;5.130;2022-08-19T07:03:39;18.90;99.90
48728;DHT22;34527;45.618;5.130;2022-08-19T07:06:08;18.90;99.90
48728;DHT22;34527;45.618;5.130;2022-08-19T07:08:36;18.80;99.90
48728;DHT22;34527;45.618;5.130;2022-08-19T07:11:06;18.80;99.90
48728;DHT22;34527;45.618;5.130;2022-08-19T07:13:33;18.80;99.90
48728;DHT22;34527;45.618;5.130;2022-08-19T07:16:06;18.80;99.90
48728;DHT22;34527;45.618;5.130;2022-08-19T07:18:33;18.80;99.90
48728;DHT22;34527;45.618;5.130;2022-08-19T07:21:08;18.70;99.90
48728;DHT22;34527;45.618;5.130;2022-08-19T07:23:34;18.70;99.90
48728;DHT22;34527;45.618;5.130;2022-08-19T07:26:16;18.70;99.90
48728;DHT22;34527;45.618;5.130;2022-08-19T07:28:42;18.60;99.90
48728;DHT22;34527;45.618;5.130;2022-08-19T07:31:15;18.70;99.90
48728;DHT22;34527;45.618;5.130;2022-08-19T07:33:44;18.70;99.90
48728;DHT22;34527;45.618;5.130;2022-08-19T07:36:12;18.70;99.90
48728;DHT22;34527;45.618;5.130;2022-08-19T07:38:40;18.70;99.90
48728;DHT22;34527;45.618;5.130;2022-08-19T07:41:11;18.80;99.90
48728;DHT22;34527;45.618;5.130;2022-08-19T07:43:38;18.70;99.90
48728;DHT22;34527;45.618;5.130;2022-08-19T07:46:05;18.80;99.90
48728;DHT22;34527;45.618;5.130;2022-08-19T07:48:31;18.70;99.90
48728;DHT22;34527;45.618;5.130;2022-08-19T07:51:00;18.80;99.90
48728;DHT22;34527;45.618;5.130;2022-08-19T07:53:31;18.80;99.90
48728;DHT22;34527;45.618;5.130;2022-08-19T07:55:59;18.90;99.90
48728;DHT22;34527;45.618;5.130;2022-08-19T07:58:31;18.90;99.90
48728;DHT22;34527;45.618;5.130;2022-08-19T08:00:58;18.90;99.90
48728;DHT22;34527;45.618;5.130;2022-08-19T08:03:25;18.90;99.90
48728;DHT22;34527;45.618;5.130;2022-08-19T08:06:11;18.90;99.90
48728;DHT22;34527;45.618;5.130;2022-08-19T08:08:56;18.90;99.90
48728;DHT22;34527;45.618;5.130;2022-08-19T08:11:53;18.90;99.90
48728;DHT22;34527;45.618;5.130;2022-08-19T08:14:24;18.90;99.90
48728;DHT22;34527;45.618;5.130;2022-08-19T08:16:51;18.90;99.90
48728;DHT22;34527;45.618;5.130;2022-08-19T08:19:20;18.90;99.90
48728;DHT22;34527;45.618;5.130;2022-08-19T08:21:48;18.90;99.90
48728;DHT22;34527;45.618;5.130;2022-08-19T08:24:14;18.90;99.90
48728;DHT22;34527;45.618;5.130;2022-08-19T08:26:41;18.90;99.90
48728;DHT22;34527;45.618;5.130;2022-08-19T08:29:07;18.90;99.90
48728;DHT22;34527;45.618;5.130;2022-08-19T08:31:39;18.90;99.90
48728;DHT22;34527;45.618;5.130;2022-08-19T08:34:07;18.90;99.90
48728;DHT22;34527;45.618;5.130;2022-08-19T08:36:37;18.90;99.90
48728;DHT22;34527;45.618;5.130;2022-08-19T08:39:16;19.00;99.90
48728;DHT22;34527;45.618;5.130;2022-08-19T08:44:23;18.90;99.90
48728;DHT22;34527;45.618;5.130;2022-08-19T08:46:57;18.90;99.90
48728;DHT22;34527;45.618;5.130;2022-08-19T08:52:29;19.10;99.90
48728;DHT22;34527;45.618;5.130;2022-08-19T08:54:58;19.10;99.90
48728;DHT22;34527;45.618;5.130;2022-08-19T09:00:09;19.10;99.90
48728;DHT22;34527;45.618;5.130;2022-08-19T09:02:36;19.20;99.90
48728;DHT22;34527;45.618;5.130;2022-08-19T09:05:02;19.20;99.90
48728;DHT22;34527;45.618;5.130;2022-08-19T09:13:18;19.40;99.90
48728;DHT22;34527;45.618;5.130;2022-08-19T09:15:58;19.40;99.90
48728;DHT22;34527;45.618;5.130;2022-08-19T09:18:40;19.40;99.90
48728;DHT22;34527;45.618;5.130;2022-08-19T09:21:06;19.40;99.90
48728;DHT22;34527;45.618;5.130;2022-08-19T09:23:35;19.50;99.90
48728;DHT22;34527;45.618;5.130;2022-08-19T09:26:04;19.50;99.90
48728;DHT22;34527;45.618;5.130;2022-08-19T09:28:31;19.60;99.90
48728;DHT22;34527;45.618;5.130;2022-08-19T09:30:57;19.60;99.90
48728;DHT22;34527;45.618;5.130;2022-08-19T09:33:23;19.50;99.90
48728;DHT22;34527;45.618;5.130;2022-08-19T09:35:49;19.60;99.90
48728;DHT22;34527;45.618;5.130;2022-08-19T09:38:15;19.50;99.90
48728;DHT22;34527;45.618;5.130;2022-08-19T09:40:41;19.50;99.90
48728;DHT22;34527;45.618;5.130;2022-08-19T09:43:07;19.40;99.90
48728;DHT22;34527;45.618;5.130;2022-08-19T09:45:33;19.40;99.90
48728;DHT22;34527;45.618;5.130;2022-08-19T09:47:58;19.40;99.90
48728;DHT22;34527;45.618;5.130;2022-08-19T09:50:24;19.30;99.90
48728;DHT22;34527;45.618;5.130;2022-08-19T09:52:51;19.30;99.90
48728;DHT22;34527;45.618;5.130;2022-08-19T09:55:18;19.20;99.90
48728;DHT22;34527;45.618;5.130;2022-08-19T09:57:43;19.20;99.90
48728;DHT22;34527;45.618;5.130;2022-08-19T10:00:10;19.20;99.90
48728;DHT22;34527;45.618;5.130;2022-08-19T10:02:36;19.20;99.90
48728;DHT22;34527;45.618;5.130;2022-08-19T10:05:03;19.20;99.90
48728;DHT22;34527;45.618;5.130;2022-08-19T10:07:47;19.30;99.90
48728;DHT22;34527;45.618;5.130;2022-08-19T10:10:13;19.30;99.90
48728;DHT22;34527;45.618;5.130;2022-08-19T10:12:39;19.30;99.90
48728;DHT22;34527;45.618;5.130;2022-08-19T10:15:06;19.30;99.90
48728;DHT22;34527;45.618;5.130;2022-08-19T10:17:32;19.40;99.90
48728;DHT22;34527;45.618;5.130;2022-08-19T10:19:59;19.40;99.90
48728;DHT22;34527;45.618;5.130;2022-08-19T10:22:25;19.40;99.90
48728;DHT22;34527;45.618;5.130;2022-08-19T10:24:51;19.40;99.90
48728;DHT22;34527;45.618;5.130;2022-08-19T10:27:17;19.40;99.90
48728;DHT22;34527;45.618;5.130;2022-08-19T10:29:43;19.40;99.90
48728;DHT22;34527;45.618;5.130;2022-08-19T10:32:09;19.40;99.90
48728;DHT22;34527;45.618;5.130;2022-08-19T10:34:38;19.40;99.90
48728;DHT22;34527;45.618;5.130;2022-08-19T10:37:05;19.30;99.90
48728;DHT22;34527;45.618;5.130;2022-08-19T10:39:33;19.30;99.90
48728;DHT22;34527;45.618;5.130;2022-08-19T10:42:03;19.30;99.90
48728;DHT22;34527;45.618;5.130;2022-08-19T10:44:29;19.30;99.90
48728;DHT22;34527;45.618;5.130;2022-08-19T10:46:55;19.30;99.90
48728;DHT22;34527;45.618;5.130;2022-08-19T10:49:21;19.10;99.90
48728;DHT22;34527;45.618;5.130;2022-08-19T10:51:49;19.20;99.90
48728;DHT22;34527;45.618;5.130;2022-08-19T10:54:53;19.20;99.90
48728;DHT22;34527;45.618;5.130;2022-08-19T10:57:38;19.30;99.90
48728;DHT22;34527;45.618;5.130;2022-08-19T11:00:04;19.30;99.90
48728;DHT22;34527;45.618;5.130;2022-08-19T11:02:30;19.30;99.90
48728;DHT22;34527;45.618;5.130;2022-08-19T11:04:58;19.50;99.90
48728;DHT22;34527;45.618;5.130;2022-08-19T11:07:24;19.40;99.90
48728;DHT22;34527;45.618;5.130;2022-08-19T11:09:50;19.50;99.90
48728;DHT22;34527;45.618;5.130;2022-08-19T11:12:16;19.70;99.90
48728;DHT22;34527;45.618;5.130;2022-08-19T11:14:42;19.70;99.90
48728;DHT22;34527;45.618;5.130;2022-08-19T11:17:08;19.70;99.90
48728;DHT22;34527;45.618;5.130;2022-08-19T11:19:34;19.70;99.90
48728;DHT22;34527;45.618;5.130;2022-08-19T11:22:01;19.70;99.90
48728;DHT22;34527;45.618;5.130;2022-08-19T11:24:28;19.60;99.90
48728;DHT22;34527;45.618;5.130;2022-08-19T11:27:01;19.70;99.90
48728;DHT22;34527;45.618;5.130;2022-08-19T11:29:28;19.70;99.90
48728;DHT22;34527;45.618;5.130;2022-08-19T11:31:54;19.80;99.90
48728;DHT22;34527;45.618;5.130;2022-08-19T11:34:23;19.80;99.90
48728;DHT22;34527;45.618;5.130;2022-08-19T11:36:51;19.80;99.90
48728;DHT22;34527;45.618;5.130;2022-08-19T11:39:20;19.90;99.90
48728;DHT22;34527;45.618;5.130;2022-08-19T11:41:47;19.90;99.90
48728;DHT22;34527;45.618;5.130;2022-08-19T11:44:13;19.90;99.90
48728;DHT22;34527;45.618;5.130;2022-08-19T11:46:41;20.00;99.90
48728;DHT22;34527;45.618;5.130;2022-08-19T11:49:08;20.00;99.90
48728;DHT22;34527;45.618;5.130;2022-08-19T11:51:35;20.00;99.90
48728;DHT22;34527;45.618;5.130;2022-08-19T11:54:03;20.10;99.90
48728;DHT22;34527;45.618;5.130;2022-08-19T11:56:29;20.20;99.90
48728;DHT22;34527;45.618;5.130;2022-08-19T11:58:57;20.20;99.90
48728;DHT22;34527;45.618;5.130;2022-08-19T12:01:25;20.20;99.90
48728;DHT22;34527;45.618;5.130;2022-08-19T12:03:52;20.30;99.90
48728;DHT22;34527;45.618;5.130;2022-08-19T12:06:24;20.30;99.90
48728;DHT22;34527;45.618;5.130;2022-08-19T12:08:55;20.30;99.90
48728;DHT22;34527;45.618;5.130;2022-08-19T12:11:22;20.30;99.90
48728;DHT22;34527;45.618;5.130;2022-08-19T12:13:48;20.40;99.90
48728;DHT22;34527;45.618;5.130;2022-08-19T12:16:17;20.40;99.90
48728;DHT22;34527;45.618;5.130;2022-08-19T12:18:49;20.40;99.90
48728;DHT22;34527;45.618;5.130;2022-08-19T12:21:24;20.50;99.90
48728;DHT22;34527;45.618;5.130;2022-08-19T12:23:56;20.60;99.90
48728;DHT22;34527;45.618;5.130;2022-08-19T12:26:24;20.70;99.90
48728;DHT22;34527;45.618;5.130;2022-08-19T12:28:50;20.80;99.90
48728;DHT22;34527;45.618;5.130;2022-08-19T12:31:17;20.90;99.90
48728;DHT22;34527;45.618;5.130;2022-08-19T12:33:45;20.90;99.90
48728;DHT22;34527;45.618;5.130;2022-08-19T12:36:14;21.00;99.90
48728;DHT22;34527;45.618;5.130;2022-08-19T12:38:41;21.00;99.90
48728;DHT22;34527;45.618;5.130;2022-08-19T12:41:13;21.20;99.90
48728;DHT22;34527;45.618;5.130;2022-08-19T12:43:39;21.30;99.90
48728;DHT22;34527;45.618;5.130;2022-08-19T12:46:07;21.40;99.90
48728;DHT22;34527;45.618;5.130;2022-08-19T12:48:35;21.50;99.90
48728;DHT22;34527;45.618;5.130;2022-08-19T12:51:07;21.40;99.90
48728;DHT22;34527;45.618;5.130;2022-08-19T12:53:34;21.50;99.90
48728;DHT22;34527;45.618;5.130;2022-08-19T12:56:02;21.60;99.90
48728;DHT22;34527;45.618;5.130;2022-08-19T12:58:29;21.60;99.90
48728;DHT22;34527;45.618;5.130;2022-08-19T13:00:55;21.70;99.90
48728;DHT22;34527;45.618;5.130;2022-08-19T13:03:23;21.60;99.90
48728;DHT22;34527;45.618;5.130;2022-08-19T13:05:55;21.80;99.90
48728;DHT22;34527;45.618;5.130;2022-08-19T13:08:22;21.60;99.90
48728;DHT22;34527;45.618;5.130;2022-08-19T13:10:48;21.60;99.90
48728;DHT22;34527;45.618;5.130;2022-08-19T13:13:15;21.60;99.90
48728;DHT22;34527;45.618;5.130;2022-08-19T13:15:41;21.70;99.90
48728;DHT22;34527;45.618;5.130;2022-08-19T13:18:10;21.70;99.90
48728;DHT22;34527;45.618;5.130;2022-08-19T13:20:38;21.70;99.90
48728;DHT22;34527;45.618;5.130;2022-08-19T13:23:06;21.80;99.90
48728;DHT22;34527;45.618;5.130;2022-08-19T13:25:32;21.90;99.90
48728;DHT22;34527;45.618;5.130;2022-08-19T13:27:59;21.90;99.90
48728;DHT22;34527;45.618;5.130;2022-08-19T13:30:25;22.00;99.90
48728;DHT22;34527;45.618;5.130;2022-08-19T13:33:10;22.10;99.90
48728;DHT22;34527;45.618;5.130;2022-08-19T13:38:09;21.90;99.90
48728;DHT22;34527;45.618;5.130;2022-08-19T13:40:36;21.80;99.90
48728;DHT22;34527;45.618;5.130;2022-08-19T13:43:03;21.80;99.90
48728;DHT22;34527;45.618;5.130;2022-08-19T13:45:32;21.70;99.90
48728;DHT22;34527;45.618;5.130;2022-08-19T13:48:03;21.70;99.90
48728;DHT22;34527;45.618;5.130;2022-08-19T13:50:44;21.80;99.90
48728;DHT22;34527;45.618;5.130;2022-08-19T13:53:11;22.10;99.90
48728;DHT22;34527;45.618;5.130;2022-08-19T13:55:39;22.30;99.90
48728;DHT22;34527;45.618;5.130;2022-08-19T13:58:05;22.40;99.90
48728;DHT22;34527;45.618;5.130;2022-08-19T14:00:35;22.60;99.90
48728;DHT22;34527;45.618;5.130;2022-08-19T14:03:03;22.50;99.90
48728;DHT22;34527;45.618;5.130;2022-08-19T14:05:30;22.60;99.90
48728;DHT22;34527;45.618;5.130;2022-08-19T14:07:56;22.70;99.90
48728;DHT22;34527;45.618;5.130;2022-08-19T14:10:23;22.90;99.90
48728;DHT22;34527;45.618;5.130;2022-08-19T14:12:51;22.80;99.90
48728;DHT22;34527;45.618;5.130;2022-08-19T14:15:17;22.80;99.90
48728;DHT22;34527;45.618;5.130;2022-08-19T14:17:45;22.70;99.90
48728;DHT22;34527;45.618;5.130;2022-08-19T14:20:14;22.60;99.90
48728;DHT22;34527;45.618;5.130;2022-08-19T14:22:42;22.50;99.90
48728;DHT22;34527;45.618;5.130;2022-08-19T14:25:11;22.30;99.90
48728;DHT22;34527;45.618;5.130;2022-08-19T14:27:38;22.20;99.90
48728;DHT22;34527;45.618;5.130;2022-08-19T14:30:06;22.40;99.90
48728;DHT22;34527;45.618;5.130;2022-08-19T14:32:33;22.80;99.90
48728;DHT22;34527;45.618;5.130;2022-08-19T14:35:00;23.10;99.90
48728;DHT22;34527;45.618;5.130;2022-08-19T14:37:26;23.30;99.90
48728;DHT22;34527;45.618;5.130;2022-08-19T14:39:52;23.30;99.90
48728;DHT22;34527;45.618;5.130;2022-08-19T14:42:19;23.30;99.90
48728;DHT22;34527;45.618;5.130;2022-08-19T14:44:45;23.20;99.90
48728;DHT22;34527;45.618;5.130;2022-08-19T14:47:10;23.30;99.90
48728;DHT22;34527;45.618;5.130;2022-08-19T14:49:37;23.40;99.90
48728;DHT22;34527;45.618;5.130;2022-08-19T14:52:05;23.30;99.90
48728;DHT22;34527;45.618;5.130;2022-08-19T14:54:31;23.30;99.90
48728;DHT22;34527;45.618;5.130;2022-08-19T14:56:57;23.30;99.90
48728;DHT22;34527;45.618;5.130;2022-08-19T14:59:23;23.30;99.90
48728;DHT22;34527;45.618;5.130;2022-08-19T15:01:49;23.50;99.90
48728;DHT22;34527;45.618;5.130;2022-08-19T15:04:15;23.50;99.90
48728;DHT22;34527;45.618;5.130;2022-08-19T15:06:40;23.50;99.90
48728;DHT22;34527;45.618;5.130;2022-08-19T15:09:08;23.50;99.90
48728;DHT22;34527;45.618;5.130;2022-08-19T15:11:34;23.40;99.90
48728;DHT22;34527;45.618;5.130;2022-08-19T15:14:01;23.60;99.90
48728;DHT22;34527;45.618;5.130;2022-08-19T15:16:27;23.50;99.90
48728;DHT22;34527;45.618;5.130;2022-08-19T15:18:56;23.30;99.90
48728;DHT22;34527;45.618;5.130;2022-08-19T15:21:23;23.30;99.90
48728;DHT22;34527;45.618;5.130;2022-08-19T15:23:50;23.40;99.90
48728;DHT22;34527;45.618;5.130;2022-08-19T15:26:18;23.60;99.90
48728;DHT22;34527;45.618;5.130;2022-08-19T15:28:44;23.50;99.90
48728;DHT22;34527;45.618;5.130;2022-08-19T15:31:11;23.40;99.90
48728;DHT22;34527;45.618;5.130;2022-08-19T15:33:39;23.40;99.90
48728;DHT22;34527;45.618;5.130;2022-08-19T15:36:08;23.40;99.90
48728;DHT22;34527;45.618;5.130;2022-08-19T15:38:34;23.60;99.90
48728;DHT22;34527;45.618;5.130;2022-08-19T15:41:02;23.40;99.90
48728;DHT22;34527;45.618;5.130;2022-08-19T15:44:10;23.40;99.90
48728;DHT22;34527;45.618;5.130;2022-08-19T15:46:37;23.40;99.90
48728;DHT22;34527;45.618;5.130;2022-08-19T15:49:04;23.60;99.90
48728;DHT22;34527;45.618;5.130;2022-08-19T15:51:32;23.60;99.90
48728;DHT22;34527;45.618;5.130;2022-08-19T15:54:01;23.70;99.90